Record high temperature 42.2°C Record low temperature -14.6°C Record high gust 68.5 km/h Record high average 47.2 km/h Record daily rain 55.3 mm Record low windchill -17.5°C Record high barometer 1045.0 hPa Record low barometer 970.0 hPa
Daily high pressure 1025.0 hPa Daily low pressure 1020.0 hPa Daily low windchill 9.3°C Daily high heat index 15.5°C Daily high gust speed 20.5 kmh SSW Daily high average speed 11.5 kmh SSE

This page is updated from recent data collected by a WMR200 weather station Use the Reload or Refresh facility on your browser to retrieve the latest data.

Status report of weather station: Bienvenue sur la Station Météo de Godarville



Weather report/warning/Metars

Alexandroupoli Airport , Greece (LGAL) 40-51N 025-55E 3M
Oct 22, 2019 - 03:20 PM EDT / 2019.10.22 1920 UTC
Wind: Variable at 2 MPH (2 KT):0
Visibility: greater than 7 mile(s):0
Temperature: 59 F (15 C)
Dew Point: 57 F (14 C)
Relative Humidity: 93%
Pressure (altimeter): 30.18 in. Hg (1022 hPa)
ob: LGAL 221920Z VRB02KT CAVOK 15/14 Q1022
cycle: 19

Charleroi / Gosselies, Belgium (EBCI) 50-28N 004-27E 192M
Oct 22, 2019 - 04:20 PM EDT / 2019.10.22 2020 UTC
Wind: from the NE (040 degrees) at 3 MPH (3 KT) (direction variable):0
Visibility: greater than 7 mile(s):0
Temperature: 50 F (10 C)
Dew Point: 46 F (8 C)
Relative Humidity: 87%
Pressure (altimeter): 30.21 in. Hg (1023 hPa)
ob: EBCI 222020Z 04003KT 350V080 CAVOK 10/08 Q1023 NOSIG
cycle: 20

Bruxelles National, Belgium (EBBR) 50-54N 004-32E 58M
Oct 22, 2019 - 04:20 PM EDT / 2019.10.22 2020 UTC
Wind: from the SE (140 degrees) at 1 MPH (1 KT):0
Visibility: greater than 7 mile(s):0
Temperature: 51 F (11 C)
Dew Point: 50 F (10 C)
Relative Humidity: 93%
Pressure (altimeter): 30.21 in. Hg (1023 hPa)
ob: EBBR 222020Z 14001KT CAVOK 11/10 Q1023 NOSIG
cycle: 20

Koksijde, Belgium (EBFN) 51-05N 002-39E 9M
Oct 22, 2019 - 04:25 PM EDT / 2019.10.22 2025 UTC
Wind: Variable at 2 MPH (2 KT):0
Visibility: 1 mile(s):0
Weather: mist
Temperature: 46 F (8 C)
Dew Point: 46 F (8 C)
Relative Humidity: 100%
Pressure (altimeter): 30.21 in. Hg (1023 hPa)
ob: EBFN 222025Z AUTO VRB02KT 2800 BR NCD 08/08 Q1023 YLO
cycle: 20

Poznan, Poland (EPPO) 52-25N 016-50E 92M
Oct 22, 2019 - 04:30 PM EDT / 2019.10.22 2030 UTC
Wind: from the N (360 degrees) at 5 MPH (4 KT):0
Visibility: 3 mile(s):0
Sky conditions: mostly cloudy
Temperature: 55 F (13 C)
Dew Point: 53 F (12 C)
Relative Humidity: 93%
Pressure (altimeter): 30.21 in. Hg (1023 hPa)
ob: EPPO 222030Z 36004KT 6000 BKN019 13/12 Q1023 
cycle: 20



Coucher du Soleil:
18:39:39

Lever de Lune:
00:25:50 22/10/19

Coucher de Lune:
15:40:01 21/10/19

Premier Quartier 5 octobre 2019
Pleine Lune 13 octobre 2019
Dernier Quartier 21 octobre 2019
Nouvelle Lune 28 octobre 2019
Âge de lune : 22 jours,13 heures,27 minutes,46%
Les heures du jour possible étaient aujourd’hui 10:25



The data is logged at two minute intervals, but there is data recorded every minute.

Use the RELOAD facility on your browser to retrieve the latest data.

Click here for a daily update of the averages/extremes to date for the month
Created by "Weather Display" software version 10.37P at this start time/date 15:11:00 19/10/2019